Time;durP1;ratioP1;P1;durP2;ratioP2;P2;SDS_P1;SDS_P2;PMS_P1;PMS_P2;Temp;Humidity;BMP_temperature;BMP_pressure;BME280_temperature;BME280_humidity;BME280_pressure;Samples;Min_cycle;Max_cycle;Signal;HPM_P1;HPM_P2
2022/06/09 00:00:44;;;;;;;5.30;4.80;;;;;;;18.90;96.99;94288.97;5092367;28;20809;-83
2022/06/09 00:03:16;;;;;;;9.73;5.80;;;;;;;18.85;97.04;94292.22;5056733;28;20434;-83
2022/06/09 00:05:43;;;;;;;4.70;4.17;;;;;;;18.83;97.75;94290.78;5092167;28;20482;-83
2022/06/09 00:08:11;;;;;;;5.63;5.13;;;;;;;18.81;98.39;94279.53;5092345;28;20818;-82
2022/06/09 00:10:42;;;;;;;5.80;5.20;;;;;;;18.81;99.04;94277.69;5092452;28;20467;-84
2022/06/09 00:13:10;;;;;;;11.03;5.27;;;;;;;18.84;98.98;94289.78;5092217;28;20444;-84
2022/06/09 00:15:37;;;;;;;12.03;5.57;;;;;;;18.81;98.99;94284.84;5039934;28;20440;-83
2022/06/09 00:18:04;;;;;;;6.03;5.57;;;;;;;18.82;99.35;94289.97;5092311;28;20462;-84
2022/06/09 00:20:32;;;;;;;5.17;4.77;;;;;;;18.81;99.15;94292.81;5092032;28;20462;-83
2022/06/09 00:22:58;;;;;;;7.13;5.27;;;;;;;18.80;99.07;94291.19;5039964;28;20468;-83
2022/06/09 00:25:25;;;;;;;6.13;5.33;;;;;;;18.84;99.13;94295.09;5092312;28;20479;-84
2022/06/09 00:27:52;;;;;;;5.33;4.77;;;;;;;18.86;98.72;94285.06;5092462;28;20443;-83
2022/06/09 00:30:21;;;;;;;5.80;5.30;;;;;;;18.85;98.90;94288.75;5092301;28;20448;-83
2022/06/09 00:32:48;;;;;;;10.90;5.20;;;;;;;18.85;98.42;94284.25;5092541;28;20448;-83
2022/06/09 00:35:15;;;;;;;7.80;5.20;;;;;;;18.86;98.19;94283.25;5092155;28;20448;-83
2022/06/09 00:37:42;;;;;;;9.47;4.87;;;;;;;18.89;98.28;94287.34;5092585;28;20448;-83
2022/06/09 00:40:12;;;;;;;6.77;5.07;;;;;;;18.89;98.26;94292.66;5091987;28;20450;-84
2022/06/09 00:42:39;;;;;;;5.50;5.00;;;;;;;18.89;98.04;94282.03;5092465;28;20450;-83
2022/06/09 00:45:33;;;;;;;5.70;5.20;;;;;;;18.86;97.97;94280.56;5091819;28;20484;-84
2022/06/09 00:48:20;;;;;;;5.87;5.27;;;;;;;18.87;97.57;94276.09;5095984;28;20428;-84
2022/06/09 00:50:51;;;;;;;8.13;5.23;;;;;;;18.84;97.64;94268.50;5095920;28;20446;-83
2022/06/09 00:53:21;;;;;;;5.87;5.27;;;;;;;18.87;97.42;94270.75;5095936;28;20953;-84
2022/06/09 00:55:49;;;;;;;6.13;5.53;;;;;;;18.85;97.44;94278.13;5095744;28;20436;-84
2022/06/09 00:58:20;;;;;;;5.53;4.77;;;;;;;18.85;97.32;94270.16;5095857;28;20440;-84
2022/06/09 01:00:55;;;;;;;12.73;5.10;;;;;;;18.82;97.35;94279.34;5060302;28;20440;-83
2022/06/09 01:03:27;;;;;;;6.10;5.20;;;;;;;18.78;97.88;94271.91;5095767;28;20455;-83
2022/06/09 01:06:02;;;;;;;5.60;5.10;;;;;;;18.79;98.07;94268.25;5096106;28;20491;-84
2022/06/09 01:08:30;;;;;;;7.00;4.60;;;;;;;18.74;97.34;94268.00;5095751;28;20447;-84
2022/06/09 01:10:57;;;;;;;7.50;4.93;;;;;;;18.75;97.44;94273.13;5095531;28;20799;-83
2022/06/09 01:13:24;;;;;;;8.93;5.23;;;;;;;18.78;97.62;94261.28;5060188;28;20440;-83
2022/06/09 01:16:02;;;;;;;4.60;4.20;;;;;;;18.81;97.82;94272.38;5095520;28;20455;-83
2022/06/09 01:18:39;;;;;;;5.67;5.17;;;;;;;18.82;97.64;94270.53;5095562;28;20972;-84
2022/06/09 01:21:16;;;;;;;5.70;4.73;;;;;;;18.78;97.14;94274.56;5094964;28;20447;-84
2022/06/09 01:24:19;;;;;;;6.03;5.53;;;;;;;18.76;97.24;94273.94;5095524;28;20452;-82
2022/06/09 01:27:17;;;;;;;10.50;5.40;;;;;;;18.71;96.97;94279.03;5013168;28;20436;-83
2022/06/09 01:29:56;;;;;;;5.60;5.00;;;;;;;18.68;97.24;94274.13;4935747;29;20547;-83
2022/06/09 01:32:29;;;;;;;5.47;4.60;;;;;;;18.63;97.76;94271.22;4935721;29;20482;-83
2022/06/09 01:35:14;;;;;;;9.40;5.37;;;;;;;18.62;97.81;94266.88;4935256;29;20451;-84
2022/06/09 01:37:45;;;;;;;5.30;4.80;;;;;;;18.60;98.05;94253.81;4934932;29;20845;-83
2022/06/09 01:40:14;;;;;;;6.77;5.57;;;;;;;18.58;97.91;94256.66;4935317;29;20454;-84
2022/06/09 01:42:43;;;;;;;5.80;5.23;;;;;;;18.62;97.72;94264.22;4934981;29;20572;-83
2022/06/09 01:45:14;;;;;;;8.33;5.17;;;;;;;18.58;97.79;94246.03;4935177;29;20581;-83
2022/06/09 01:47:50;;;;;;;12.27;5.00;;;;;;;18.55;97.04;94251.72;4935245;29;20451;-83
2022/06/09 01:50:24;;;;;;;8.33;5.77;;;;;;;18.49;97.47;94247.16;4934937;29;20958;-83
2022/06/09 01:52:54;;;;;;;6.33;5.73;;;;;;;18.48;97.32;94245.53;4934924;29;20451;-83
2022/06/09 01:55:24;;;;;;;5.50;5.00;;;;;;;18.43;97.61;94253.25;4935093;29;20455;-83
2022/06/09 01:57:57;;;;;;;8.65;6.03;;;;;;;18.48;97.81;94260.66;4933295;29;20452;-84
2022/06/09 02:00:26;;;;;;;9.13;5.43;;;;;;;18.48;97.05;94248.19;4934845;29;20737;-84
2022/06/09 02:03:01;;;;;;;9.33;5.40;;;;;;;18.47;97.00;94249.19;4938921;28;20451;-83
2022/06/09 02:05:30;;;;;;;15.47;5.37;;;;;;;18.45;97.01;94251.22;5012360;28;20505;-83
2022/06/09 02:08:00;;;;;;;4.93;4.53;;;;;;;18.43;97.57;94260.41;5083686;28;20447;-83
2022/06/09 02:10:32;;;;;;;9.10;5.43;;;;;;;18.42;97.12;94261.44;5094651;28;20442;-83
2022/06/09 02:13:02;;;;;;;8.10;5.10;;;;;;;18.39;96.91;94257.31;5094196;28;20444;-84
2022/06/09 02:15:33;;;;;;;8.10;5.07;;;;;;;18.39;97.51;94257.31;5094110;28;20459;-83
2022/06/09 02:18:07;;;;;;;5.73;5.13;;;;;;;18.37;97.54;94259.34;5094205;28;20824;-83
2022/06/09 02:20:35;;;;;;;6.40;5.80;;;;;;;18.36;97.66;94257.72;5094284;28;20514;-84
2022/06/09 02:23:02;;;;;;;5.77;5.20;;;;;;;18.31;97.98;94264.63;5093904;28;20838;-83
2022/06/09 02:25:29;;;;;;;8.50;5.10;;;;;;;18.31;98.26;94270.75;5074955;28;20476;-83
2022/06/09 02:27:56;;;;;;;6.10;4.83;;;;;;;18.29;98.46;94272.78;5093959;28;20455;-84
2022/06/09 02:30:23;;;;;;;7.30;4.60;;;;;;;18.30;98.80;94268.28;5093760;28;20451;-83
2022/06/09 02:32:50;;;;;;;9.00;6.50;;;;;;;18.25;98.54;94260.91;5093710;28;20458;-83
2022/06/09 02:35:18;;;;;;;5.37;4.90;;;;;;;18.25;98.79;94271.53;5094403;28;20455;-84
2022/06/09 02:37:45;;;;;;;14.10;5.67;;;;;;;18.22;98.75;94271.91;5094125;28;20462;-84
2022/06/09 02:40:12;;;;;;;6.30;5.70;;;;;;;18.24;98.86;94272.53;5093704;28;20440;-84
2022/06/09 02:42:39;;;;;;;6.53;5.97;;;;;;;18.26;98.79;94271.34;5093569;28;20444;-84
2022/06/09 02:45:09;;;;;;;10.70;6.23;;;;;;;18.30;98.81;94274.44;5093508;28;20483;-84
2022/06/09 02:47:35;;;;;;;6.17;5.50;;;;;;;18.32;99.07;94272.41;5058200;28;20456;-83
2022/06/09 02:50:02;;;;;;;7.17;5.47;;;;;;;18.29;98.98;94267.47;5093532;28;20474;-83
2022/06/09 02:52:31;;;;;;;6.93;5.60;;;;;;;18.35;98.42;94279.97;5093475;28;20442;-84
2022/06/09 02:54:58;;;;;;;10.10;5.27;;;;;;;18.39;98.41;94267.13;5093559;28;20470;-83
2022/06/09 02:57:29;;;;;;;11.07;5.40;;;;;;;18.41;97.44;94270.41;5041641;28;20464;-83
2022/06/09 02:59:55;;;;;;;6.20;4.60;;;;;;;18.38;97.95;94270.81;5093454;28;20488;-84
2022/06/09 03:02:23;;;;;;;12.23;5.03;;;;;;;18.35;97.93;94274.66;5093328;28;20765;-84
2022/06/09 03:04:50;;;;;;;5.30;4.90;;;;;;;18.35;97.86;94273.84;5093457;28;20800;-83
2022/06/09 03:07:18;;;;;;;11.07;5.13;;;;;;;18.36;98.08;94276.31;5057840;28;20432;-84
2022/06/09 03:09:46;;;;;;;10.93;5.17;;;;;;;18.35;98.59;94265.88;5040711;28;20439;-83
2022/06/09 03:12:16;;;;;;;9.27;5.43;;;;;;;18.31;98.39;94270.75;5093563;28;20542;-83
2022/06/09 03:14:43;;;;;;;8.20;5.00;;;;;;;18.31;98.43;94270.75;5093272;28;20961;-83
2022/06/09 03:17:10;;;;;;;7.50;5.30;;;;;;;18.35;98.63;94277.31;5093256;28;20440;-84
2022/06/09 03:19:38;;;;;;;7.43;5.60;;;;;;;18.38;98.52;94271.63;5074523;28;21013;-84
2022/06/09 03:22:05;;;;;;;8.97;5.10;;;;;;;18.35;98.54;94272.00;5093005;28;20471;-84
2022/06/09 03:24:33;;;;;;;6.37;5.07;;;;;;;18.34;97.87;94274.88;5093296;28;20436;-86
2022/06/09 03:27:01;;;;;;;8.30;6.07;;;;;;;18.37;98.11;94277.94;5093104;28;20846;-84
2022/06/09 03:29:28;;;;;;;6.23;5.63;;;;;;;18.39;97.83;94277.75;5093495;28;20451;-84
2022/06/09 03:31:56;;;;;;;12.03;6.03;;;;;;;18.50;98.01;94280.72;5040378;28;20436;-84
2022/06/09 03:34:23;;;;;;;8.07;6.43;;;;;;;18.63;97.13;94280.00;5092781;28;20957;-83
2022/06/09 03:36:50;;;;;;;6.30;5.70;;;;;;;18.75;96.83;94273.13;5057706;28;20954;-85
2022/06/09 03:39:17;;;;;;;7.17;5.90;;;;;;;19.01;97.12;94275.13;5092820;28;20939;-84
2022/06/09 03:41:44;;;;;;;6.10;5.60;;;;;;;19.31;94.68;94273.00;5092861;28;20455;-85
2022/06/09 03:44:12;;;;;;;7.50;5.90;;;;;;;19.67;92.94;94280.78;5093026;28;20455;-86
2022/06/09 03:46:39;;;;;;;12.50;5.30;;;;;;;20.01;91.15;94273.66;5093078;28;20483;-85
2022/06/09 03:49:07;;;;;;;7.10;5.60;;;;;;;20.19;88.20;94281.03;5092791;28;20440;-85
2022/06/09 03:51:34;;;;;;;11.23;5.43;;;;;;;20.31;89.51;94280.25;5093015;28;20804;-81
2022/06/09 03:54:01;;;;;;;5.23;4.70;;;;;;;20.69;87.00;94282.31;5092684;28;20440;-81
2022/06/09 03:56:28;;;;;;;8.43;6.33;;;;;;;21.22;84.73;94283.03;5092737;28;20443;-80
2022/06/09 03:58:55;;;;;;;9.33;6.87;;;;;;;21.67;83.17;94279.59;5092404;28;20444;-81
2022/06/09 04:01:24;;;;;;;6.23;5.63;;;;;;;22.02;81.21;94283.53;5092297;28;20444;-81
2022/06/09 04:03:51;;;;;;;7.83;5.10;;;;;;;22.34;80.67;94280.88;5092314;28;20463;-81
2022/06/09 04:06:20;;;;;;;5.40;4.53;;;;;;;22.74;79.62;94287.53;5092400;28;20475;-81
2022/06/09 04:08:48;;;;;;;17.37;6.47;;;;;;;22.82;80.45;94286.44;5092285;28;20448;-82
2022/06/09 04:11:16;;;;;;;6.00;5.10;;;;;;;23.04;79.03;94282.31;5092151;28;20444;-81
2022/06/09 04:13:44;;;;;;;8.50;6.07;;;;;;;23.06;77.55;94287.44;5092670;28;20436;-81
2022/06/09 04:16:23;;;;;;;5.93;5.43;;;;;;;23.06;76.92;94280.25;5091993;28;20448;-82
2022/06/09 04:18:52;;;;;;;7.53;6.83;;;;;;;22.91;76.56;94278.97;5091948;28;20454;-82
2022/06/09 04:21:19;;;;;;;6.83;6.13;;;;;;;22.76;78.42;94287.28;5095413;28;20475;-83
2022/06/09 04:23:46;;;;;;;7.10;6.40;;;;;;;22.53;80.44;94282.53;5096395;28;20958;-88
2022/06/09 04:26:15;;;;;;;13.87;7.33;;;;;;;21.92;83.90;94278.63;5096252;28;20479;-80
2022/06/09 04:28:42;;;;;;;14.23;7.00;;;;;;;22.08;85.99;94272.00;5096323;28;20848;-82
2022/06/09 04:31:10;;;;;;;9.43;7.50;;;;;;;21.67;82.15;94274.25;5096251;28;20440;-81
2022/06/09 04:33:37;;;;;;;8.10;7.13;;;;;;;21.73;81.53;94276.91;5092224;28;20437;-86
2022/06/09 04:36:06;;;;;;;11.23;7.37;;;;;;;21.47;83.68;94267.16;5092647;28;20480;-83
2022/06/09 04:38:36;;;;;;;24.40;17.83;;;;;;;21.08;85.23;94261.91;5095585;28;20459;-82
2022/06/09 04:41:09;;;;;;;13.87;12.37;;;;;;;20.65;85.82;94271.25;5096421;28;20479;-82
2022/06/09 04:43:36;;;;;;;11.33;9.80;;;;;;;20.22;88.91;94269.97;5096177;28;20460;-82
2022/06/09 04:46:07;;;;;;;10.87;9.77;;;;;;;20.20;89.76;94272.84;5092348;28;20468;-83
2022/06/09 04:48:36;;;;;;;11.10;8.90;;;;;;;20.17;90.65;94265.25;5091291;28;20451;-82
2022/06/09 04:51:07;;;;;;;30.67;22.10;;;;;;;20.07;92.80;94267.53;5090508;28;20815;-83
2022/06/09 04:53:34;;;;;;;33.60;27.50;;;;;;;19.88;93.78;94265.63;5096631;28;20452;-82
2022/06/09 04:56:01;;;;;;;28.33;19.70;;;;;;;19.78;93.29;94264.19;5096872;28;20792;-82
2022/06/09 04:58:28;;;;;;;16.10;14.20;;;;;;;19.66;94.36;94267.63;5097330;28;20440;-82
2022/06/09 05:00:55;;;;;;;16.20;13.00;;;;;;;19.23;95.57;94264.38;5096974;28;20448;-84
2022/06/09 05:03:23;;;;;;;11.70;10.50;;;;;;;19.35;96.34;94276.09;5096629;28;20447;-82
2022/06/09 05:05:50;;;;;;;12.93;11.30;;;;;;;19.26;96.70;94278.13;5096737;28;20482;-81
2022/06/09 05:08:19;;;;;;;13.03;11.70;;;;;;;19.32;96.74;94274.66;5097361;28;20479;-82
2022/06/09 05:10:47;;;;;;;15.77;12.03;;;;;;;19.19;97.33;94280.75;5096632;28;20462;-82
2022/06/09 05:13:15;;;;;;;17.93;11.90;;;;;;;19.21;97.68;94279.72;5096520;28;20777;-82
2022/06/09 05:15:50;;;;;;;17.40;13.40;;;;;;;19.38;100.00;94276.53;5096790;28;20954;-81
2022/06/09 05:21:38;;;;;;;13.47;10.53;;;;;;;20.50;96.69;94261.81;5094606;28;20541;-84
2022/06/09 05:24:07;;;;;;;12.77;10.00;;;;;;;21.09;92.50;94268.88;5077979;28;20443;-81
2022/06/09 05:26:34;;;;;;;14.20;10.80;;;;;;;21.64;89.31;94270.97;5097038;28;20471;-83
2022/06/09 05:29:00;;;;;;;16.60;10.70;;;;;;;22.17;86.88;94270.69;5097222;28;20440;-83
2022/06/09 05:31:28;;;;;;;11.07;9.97;;;;;;;22.29;82.68;94259.31;5043426;28;20452;-83
2022/06/09 05:33:55;;;;;;;12.90;9.50;;;;;;;22.58;81.96;94272.03;5096926;28;20436;-83
2022/06/09 05:36:22;;;;;;;14.73;9.57;;;;;;;22.89;79.35;94278.38;5061541;28;21339;-83
2022/06/09 05:47:03;;;;;;;12.13;10.93;;;;;;;22.99;79.21;94281.34;5095912;28;20514;-83
2022/06/09 05:49:30;;;;;;;12.50;11.27;;;;;;;23.00;78.06;94273.09;5096183;28;20772;-82
2022/06/09 05:51:58;;;;;;;14.40;10.33;;;;;;;23.16;77.16;94287.78;5095649;28;20455;-82
2022/06/09 05:54:25;;;;;;;13.53;11.87;;;;;;;23.01;77.29;94282.78;5096900;28;20436;-83
2022/06/09 05:56:54;;;;;;;14.30;11.27;;;;;;;23.17;78.35;94278.72;5095484;28;20803;-83
2022/06/09 05:59:21;;;;;;;17.73;11.60;;;;;;;23.03;79.08;94269.97;5095601;28;20448;-82
2022/06/09 06:01:48;;;;;;;12.70;11.33;;;;;;;22.81;79.12;94279.44;5095495;28;20439;-83
2022/06/09 06:04:15;;;;;;;14.03;10.90;;;;;;;22.89;79.84;94268.50;5095754;28;20436;-82
2022/06/09 06:06:42;;;;;;;15.13;12.10;;;;;;;22.87;78.52;94265.22;5095358;28;20475;-83
2022/06/09 06:09:14;;;;;;;14.20;12.70;;;;;;;23.05;77.50;94277.78;5096332;28;20788;-82
2022/06/09 06:11:41;;;;;;;12.63;10.90;;;;;;;23.09;77.08;94268.28;5095271;28;20452;-83
2022/06/09 06:14:10;;;;;;;14.57;10.90;;;;;;;22.72;77.65;94270.88;5094351;28;20440;-82
2022/06/09 06:16:38;;;;;;;14.23;12.30;;;;;;;22.49;79.63;94268.81;5094140;28;20451;-82
2022/06/09 06:19:05;;;;;;;19.07;13.13;;;;;;;22.39;80.74;94257.78;5094262;28;20451;-83
2022/06/09 06:21:33;;;;;;;15.50;13.87;;;;;;;22.25;81.75;94261.59;5093826;28;20479;-82
2022/06/09 06:24:00;;;;;;;13.37;12.03;;;;;;;22.33;82.87;94247.16;5094423;28;20441;-82
2022/06/09 06:26:27;;;;;;;17.40;12.53;;;;;;;22.45;82.23;94254.22;5094204;28;20489;-82
2022/06/09 06:28:53;;;;;;;18.03;12.63;;;;;;;22.89;82.11;94251.63;5094182;28;20444;-82
2022/06/09 06:31:22;;;;;;;14.30;11.60;;;;;;;22.72;78.54;94257.50;5094073;28;20450;-83
2022/06/09 06:33:48;;;;;;;13.07;11.73;;;;;;;22.50;79.74;94258.91;5042036;28;20800;-83
2022/06/09 06:36:16;;;;;;;17.37;14.17;;;;;;;22.72;81.35;94252.16;5093869;28;20443;-86
2022/06/09 06:38:43;;;;;;;14.63;12.97;;;;;;;23.07;77.54;94259.66;5093970;28;20459;-87
2022/06/09 06:41:12;;;;;;;19.60;13.70;;;;;;;23.19;77.00;94252.53;5042201;28;20448;-80
2022/06/09 06:43:39;;;;;;;16.10;13.43;;;;;;;23.38;75.54;94251.47;5093643;28;20444;-80
2022/06/09 06:46:07;;;;;;;13.77;11.93;;;;;;;23.45;75.37;94257.59;5094001;28;20444;-81
2022/06/09 06:48:36;;;;;;;15.30;12.87;;;;;;;23.48;74.90;94246.41;5085888;28;20469;-81
2022/06/09 06:51:05;;;;;;;16.23;12.50;;;;;;;23.56;74.36;94247.16;5081991;28;20460;-80
2022/06/09 06:53:32;;;;;;;15.00;12.67;;;;;;;23.77;74.08;94249.38;5076179;28;20440;-80
2022/06/09 06:55:59;;;;;;;11.60;10.37;;;;;;;23.72;72.04;94252.75;5089666;28;20965;-80
2022/06/09 06:58:26;;;;;;;11.80;10.53;;;;;;;23.70;72.48;94253.97;5090174;28;20445;-80
2022/06/09 07:00:53;;;;;;;12.50;11.20;;;;;;;23.94;72.31;94255.72;5081220;28;20449;-80
2022/06/09 07:03:20;;;;;;;15.27;11.00;;;;;;;24.10;70.40;94249.72;5094026;28;20449;-80
2022/06/09 07:05:49;;;;;;;14.87;10.87;;;;;;;24.26;72.20;94245.53;5094810;28;20440;-80
2022/06/09 07:08:16;;;;;;;13.70;10.20;;;;;;;24.47;71.92;94254.94;5058717;28;20483;-80
2022/06/09 07:10:45;;;;;;;10.90;9.70;;;;;;;24.92;69.97;94246.34;5079633;28;20959;-80
2022/06/09 07:13:12;;;;;;;13.00;11.80;;;;;;;24.83;69.62;94245.88;5074922;28;20442;-80
2022/06/09 07:15:40;;;;;;;11.27;10.27;;;;;;;25.10;68.11;94253.47;5084034;28;20445;-80
2022/06/09 07:18:09;;;;;;;15.63;11.80;;;;;;;25.05;68.93;94240.75;5087813;28;20444;-80
2022/06/09 07:20:36;;;;;;;12.67;11.57;;;;;;;24.74;69.78;94251.84;5081115;28;20436;-80
2022/06/09 07:23:04;;;;;;;11.87;10.70;;;;;;;24.55;69.26;94246.56;5080697;28;20526;-80
2022/06/09 07:25:31;;;;;;;13.30;10.70;;;;;;;24.22;69.55;94251.59;5088305;28;20791;-80
2022/06/09 07:27:58;;;;;;;11.77;10.60;;;;;;;24.27;69.53;94243.69;5074051;28;20978;-80
2022/06/09 07:30:28;;;;;;;10.20;9.27;;;;;;;24.40;72.20;94235.47;5084797;28;20456;-79
2022/06/09 07:32:55;;;;;;;13.40;9.80;;;;;;;24.52;69.76;94238.97;5083079;28;20930;-79
2022/06/09 07:35:27;;;;;;;11.17;10.17;;;;;;;24.66;68.93;94243.09;4998403;28;20452;-79
2022/06/09 07:37:54;;;;;;;10.17;9.10;;;;;;;24.41;69.54;94242.47;5082094;28;20467;-80
2022/06/09 07:40:23;;;;;;;12.03;10.93;;;;;;;24.08;71.18;94234.91;5082637;28;20787;-80
2022/06/09 07:42:50;;;;;;;14.20;10.37;;;;;;;24.52;70.96;94240.84;5093524;28;20428;-79
2022/06/09 07:45:17;;;;;;;13.87;11.67;;;;;;;24.55;69.52;94232.31;5093852;28;20428;-79
2022/06/09 07:47:45;;;;;;;16.60;11.10;;;;;;;24.77;68.89;94232.56;5093375;28;20483;-80
2022/06/09 07:50:13;;;;;;;10.83;9.47;;;;;;;24.83;71.29;94228.94;5093828;28;20432;-79
2022/06/09 07:52:41;;;;;;;11.47;10.33;;;;;;;24.61;70.29;94228.75;5093722;28;20455;-80
2022/06/09 07:55:09;;;;;;;12.60;11.50;;;;;;;24.56;68.10;94221.38;5093083;28;20437;-80
2022/06/09 07:57:37;;;;;;;12.10;10.90;;;;;;;24.92;67.47;94224.88;5041647;28;20432;-80
2022/06/09 08:00:05;;;;;;;12.63;10.73;;;;;;;25.27;69.09;94212.25;5093659;28;20455;-80
2022/06/09 08:02:32;;;;;;;15.27;10.10;;;;;;;25.43;68.61;94215.22;5041723;28;20931;-80
2022/06/09 08:04:59;;;;;;;17.13;9.87;;;;;;;25.58;67.62;94223.59;5093809;28;20428;-80
2022/06/09 08:07:26;;;;;;;12.83;10.60;;;;;;;25.56;65.38;94212.28;5092361;28;21007;-80
2022/06/09 08:09:53;;;;;;;10.10;9.10;;;;;;;25.26;69.17;94207.94;5092504;28;20527;-80
2022/06/09 08:12:20;;;;;;;14.17;10.90;;;;;;;25.29;65.50;94204.75;5092469;28;20444;-80
2022/06/09 08:14:48;;;;;;;10.67;8.27;;;;;;;25.57;66.98;94201.28;5092360;28;20450;-80
2022/06/09 08:17:15;;;;;;;12.93;10.07;;;;;;;25.71;66.80;94206.41;5092603;28;20432;-81
2022/06/09 08:19:44;;;;;;;11.07;9.50;;;;;;;25.73;64.61;94207.78;5092261;28;20449;-80
2022/06/09 08:22:11;;;;;;;11.07;9.50;;;;;;;25.74;66.71;94197.88;5092317;28;20566;-80
2022/06/09 08:24:37;;;;;;;14.07;10.30;;;;;;;25.62;66.15;94201.38;5092982;28;21011;-80
2022/06/09 08:27:05;;;;;;;12.77;9.80;;;;;;;25.36;66.21;94199.25;5093525;28;20810;-80
2022/06/09 08:29:32;;;;;;;9.50;8.63;;;;;;;25.56;64.83;94196.97;5092941;28;20511;-80
2022/06/09 08:32:00;;;;;;;10.90;9.83;;;;;;;25.84;63.13;94192.69;5093199;28;20424;-80
2022/06/09 08:34:28;;;;;;;9.90;8.90;;;;;;;25.68;63.61;94193.44;5093259;28;20805;-80
2022/06/09 08:36:55;;;;;;;12.07;9.87;;;;;;;25.10;65.30;94183.66;5093527;28;20447;-80
2022/06/09 08:39:23;;;;;;;11.20;8.73;;;;;;;25.05;66.59;94180.88;5093435;28;20441;-80
2022/06/09 08:41:59;;;;;;;12.53;9.47;;;;;;;25.12;65.36;94174.31;5073172;28;20445;-81
2022/06/09 08:44:34;;;;;;;11.90;9.60;;;;;;;25.18;66.59;94181.44;5072933;28;20761;-79
2022/06/09 08:47:12;;;;;;;10.20;9.30;;;;;;;25.08;67.27;94177.72;5072739;28;20534;-80
2022/06/09 08:49:53;;;;;;;9.17;8.33;;;;;;;25.22;69.02;94181.78;5021410;28;20834;-80
2022/06/09 08:52:34;;;;;;;9.80;8.83;;;;;;;25.41;67.21;94183.22;5072605;28;20460;-80
2022/06/09 08:55:08;;;;;;;11.27;9.87;;;;;;;25.42;66.81;94181.34;5072250;28;20793;-81
2022/06/09 08:57:37;;;;;;;11.10;10.10;;;;;;;25.47;66.29;94173.44;5072020;28;20448;-81
2022/06/09 09:00:05;;;;;;;16.47;10.20;;;;;;;25.51;63.47;94179.94;5071751;28;20963;-81
2022/06/09 09:02:39;;;;;;;12.40;10.10;;;;;;;25.28;64.86;94170.91;5036462;28;20528;-80
2022/06/09 09:05:17;;;;;;;9.10;8.20;;;;;;;25.58;65.55;94159.13;5071660;28;20928;-80
2022/06/09 09:07:48;;;;;;;11.10;8.97;;;;;;;25.57;65.25;94155.63;5073512;28;20995;-81
2022/06/09 09:10:20;;;;;;;9.90;8.93;;;;;;;25.90;65.56;94151.38;5075344;28;20438;-81
2022/06/09 09:12:58;;;;;;;10.33;9.30;;;;;;;25.76;62.60;94150.91;5075614;28;20472;-81
2022/06/09 09:15:30;;;;;;;9.97;8.40;;;;;;;25.93;62.12;94157.09;5075427;28;20445;-81
2022/06/09 09:18:12;;;;;;;12.00;9.20;;;;;;;26.11;63.09;94155.25;5075089;28;20449;-81
2022/06/09 09:20:43;;;;;;;10.23;8.13;;;;;;;26.23;60.75;94150.59;5075341;28;20460;-81
2022/06/09 09:23:15;;;;;;;9.53;8.63;;;;;;;25.84;59.73;94147.81;5039514;28;20567;-81
2022/06/09 09:25:48;;;;;;;10.23;9.23;;;;;;;25.32;63.72;94137.13;5074824;28;20448;-80
2022/06/09 09:28:19;;;;;;;10.07;8.93;;;;;;;25.13;65.92;94135.69;5075330;28;20480;-80
2022/06/09 09:31:00;;;;;;;10.23;7.70;;;;;;;24.87;65.16;94137.03;5074552;28;20433;-80
2022/06/09 09:33:31;;;;;;;9.07;8.17;;;;;;;24.65;65.14;94136.81;5039351;28;20505;-81
2022/06/09 09:36:02;;;;;;;8.20;7.50;;;;;;;24.49;68.70;94129.47;5074629;28;20449;-80
2022/06/09 09:38:39;;;;;;;10.90;8.10;;;;;;;24.36;70.81;94117.13;5074721;28;20916;-80
2022/06/09 09:41:06;;;;;;;8.67;7.80;;;;;;;24.29;68.01;94111.06;5074680;28;20942;-80
2022/06/09 09:43:40;;;;;;;12.03;8.10;;;;;;;24.22;67.45;94106.81;5074721;28;20445;-80
2022/06/09 09:46:20;;;;;;;7.77;7.10;;;;;;;24.23;69.07;94111.94;5074400;28;20445;-80
2022/06/09 09:48:49;;;;;;;9.07;8.17;;;;;;;24.12;67.78;94107.41;5055615;28;20487;-80
2022/06/09 09:51:16;;;;;;;10.40;7.87;;;;;;;24.32;67.51;94104.41;5075425;28;20442;-80
2022/06/09 09:53:55;;;;;;;7.67;6.90;;;;;;;24.47;67.78;94109.28;5075494;28;20440;-80
2022/06/09 09:56:40;;;;;;;7.60;6.70;;;;;;;24.75;65.57;94100.50;5075849;28;20437;-80
2022/06/09 09:59:24;;;;;;;11.10;7.80;;;;;;;24.84;64.66;94104.44;5075234;28;20450;-81
2022/06/09 10:10:34;;;;;;;9.27;7.63;;;;;;;24.60;65.80;94087.59;5013514;28;20404;-80
2022/06/09 10:13:01;;;;;;;11.30;10.20;;;;;;;24.68;65.36;94085.34;5013342;28;20440;-85
2022/06/09 10:15:28;;;;;;;9.93;6.80;;;;;;;24.88;65.63;94073.41;5013478;28;20443;-79
2022/06/09 10:18:03;;;;;;;7.70;6.60;;;;;;;25.11;66.38;94070.66;5012800;28;20464;-79
2022/06/09 10:20:36;;;;;;;6.83;6.10;;;;;;;24.58;63.33;94081.66;5013444;28;20451;-84
2022/06/09 10:23:25;;;;;;;9.07;5.67;;;;;;;24.65;63.88;94075.09;5013221;28;20838;-83
2022/06/09 10:25:59;;;;;;;7.83;6.03;;;;;;;24.86;65.40;94065.56;5013164;28;20441;-85
2022/06/09 10:28:33;;;;;;;10.30;6.40;;;;;;;25.14;66.25;94064.81;5013132;28;20491;-79
2022/06/09 10:31:07;;;;;;;8.00;6.07;;;;;;;25.22;62.63;94075.19;5012910;28;20486;-79
2022/06/09 10:33:39;;;;;;;8.40;5.77;;;;;;;25.15;63.15;94063.75;5012937;28;20453;-80
2022/06/09 10:36:15;;;;;;;12.23;6.50;;;;;;;25.16;62.62;94065.41;5012026;28;20546;-79
2022/06/09 10:38:47;;;;;;;8.67;6.30;;;;;;;25.26;64.40;94064.78;5012071;28;20479;-80
2022/06/09 10:41:18;;;;;;;7.10;6.00;;;;;;;25.27;62.81;94063.72;5038772;28;20518;-79
2022/06/09 10:43:52;;;;;;;6.23;5.17;;;;;;;25.30;64.49;94061.38;5092186;28;20465;-79
2022/06/09 10:46:30;;;;;;;11.20;5.70;;;;;;;25.28;63.18;94063.47;5081152;28;20474;-80
2022/06/09 10:57:47;;;;;;;5.30;4.80;;;;;;;25.36;63.88;94048.03;5084724;28;20424;-79
2022/06/09 11:00:19;;;;;;;6.40;5.80;;;;;;;25.02;61.85;94050.63;5075764;28;20455;-79
2022/06/09 11:02:50;;;;;;;7.87;5.67;;;;;;;24.95;62.38;94049.94;5075132;28;20445;-79
2022/06/09 11:05:20;;;;;;;5.63;4.80;;;;;;;24.87;61.78;94042.25;5084231;28;20440;-79
2022/06/09 11:08:01;;;;;;;6.00;5.50;;;;;;;24.65;64.74;94042.91;5082377;28;20951;-79
2022/06/09 11:10:44;;;;;;;7.53;6.83;;;;;;;24.80;66.43;94028.97;5074199;28;20442;-79
2022/06/09 11:13:39;;;;;;;6.43;5.70;;;;;;;25.01;63.12;94040.94;5082594;28;20466;-79
2022/06/09 11:16:13;;;;;;;6.07;5.57;;;;;;;25.20;63.17;94034.34;5085615;28;20447;-79
2022/06/09 11:18:46;;;;;;;6.77;5.90;;;;;;;25.43;60.01;94036.06;5093806;28;20429;-79
2022/06/09 11:21:18;;;;;;;8.90;6.07;;;;;;;25.59;59.78;94037.16;5094575;28;20440;-79
2022/06/09 11:24:03;;;;;;;6.53;5.90;;;;;;;25.82;60.47;94036.22;5093732;28;20432;-79
2022/06/09 11:26:42;;;;;;;10.03;6.90;;;;;;;25.87;58.18;94029.03;5094385;28;20451;-79
2022/06/09 11:29:27;;;;;;;5.77;5.20;;;;;;;25.83;60.54;94030.59;5093608;28;20486;-79
2022/06/09 11:32:03;;;;;;;6.23;5.70;;;;;;;25.88;61.14;94022.59;5093674;28;20440;-80
2022/06/09 11:35:12;;;;;;;5.53;5.03;;;;;;;26.08;59.35;94023.97;5094006;28;20431;-80
2022/06/09 11:37:55;;;;;;;7.77;5.10;;;;;;;26.08;59.91;94014.03;5091091;28;20559;-80
2022/06/09 11:40:36;;;;;;;5.83;5.33;;;;;;;26.18;60.26;94002.59;5094224;28;20435;-81
2022/06/09 11:43:19;;;;;;;6.83;5.60;;;;;;;26.28;57.80;94005.41;5094734;28;20535;-80
2022/06/09 11:45:50;;;;;;;6.33;5.30;;;;;;;26.15;55.58;93993.16;5093564;28;20456;-80
2022/06/09 11:48:23;;;;;;;7.17;5.50;;;;;;;26.05;55.91;93986.81;5094065;28;20467;-80
2022/06/09 11:50:51;;;;;;;8.83;6.63;;;;;;;25.92;55.55;93988.78;5093841;28;20453;-80
2022/06/09 11:53:24;;;;;;;5.90;5.30;;;;;;;25.89;56.91;93981.22;5093715;28;20447;-80
2022/06/09 11:56:34;;;;;;;7.83;4.87;;;;;;;25.98;56.87;93975.41;5093853;28;20792;-82
2022/06/09 11:59:02;;;;;;;7.77;5.63;;;;;;;26.09;56.93;93977.19;5093447;28;20448;-82
2022/06/09 12:02:06;;;;;;;7.20;5.23;;;;;;;26.18;58.42;93975.69;5093329;28;20532;-83
2022/06/09 12:05:00;;;;;;;5.80;5.30;;;;;;;26.23;54.90;93973.88;5094113;28;20804;-82
2022/06/09 12:07:47;;;;;;;5.33;4.87;;;;;;;26.33;56.25;93975.91;5027981;28;20448;-82
2022/06/09 12:10:33;;;;;;;5.20;4.70;;;;;;;26.18;56.37;93975.69;5093839;28;20788;-83
2022/06/09 12:13:25;;;;;;;5.40;4.87;;;;;;;26.12;54.93;93976.69;5058539;28;20440;-82